Latest Weather Observations for Ngayawili (Elcho Island)

IDD60801

Issued at 11:11 pm CST Sunday 17 February 2019 (issued every 10 minutes, with the page automatically refreshed every 10 minutes)

About weather observations | Map of weather stations | Latest weather observations for NT | Other Formats
Station Details ID: 014517 Name: NGAYAWILI Lat: -12.00 Lon: 135.57 Height: 8.1 m
Data from the previous 72 hours. | See also: Recent months at Ngayawili (Elcho Island)
Date/Time
CST
Temp
°C
App
Temp
°C
Dew
Point
°C
Rel
Hum
%
Delta-T
°C
Wind Press
QNH
hPa
Press
MSL
hPa
Rain since
9am
mm
Dir  Spd
km/h
Gust
km/h
Spd
kts
Gust
kts
17/10:00pm 29.6 32.9 25.1 77 3.2 NNW 17 20 9 11 1010.4 1010.3 0.0
17/09:30pm 29.6 32.3 24.7 75 3.4 NNW 19 20 10 11 1010.0 1009.9 0.0
17/09:00pm 29.4 31.8 24.3 74 3.6 NNW 19 20 10 11 1009.5 1009.4 0.0
17/08:30pm 29.5 32.8 23.9 72 3.9 NNW 13 15 7 8 1009.4 1009.3 0.0
17/08:00pm 29.4 32.9 23.6 71 4.0 NW 11 13 6 7 1009.0 1008.9 0.0
17/07:30pm 29.6 33.1 24.2 73 3.8 NW 13 17 7 9 1008.8 1008.7 0.0
17/07:00pm 29.6 33.4 24.0 72 3.9 NW 11 13 6 7 1008.8 1008.7 0.0
17/06:30pm 30.1 33.3 24.3 71 4.0 NNW 15 19 8 10 1008.3 1008.2 0.0
17/06:00pm 30.7 34.2 24.8 71 4.1 NW 15 17 8 9 1007.8 1007.7 0.0
17/05:30pm 31.0 33.9 24.4 68 4.6 NW 17 20 9 11 1007.8 1007.7 0.0
17/05:00pm 31.1 34.0 24.5 68 4.6 NW 17 20 9 11 1007.6 1007.5 0.0
17/04:30pm 31.4 33.9 24.8 68 4.6 NW 20 22 11 12 1007.7 1007.6 0.0
17/04:00pm 31.8 34.8 25.2 68 4.7 NW 19 24 10 13 1008.2 1008.1 0.0
17/03:30pm 32.0 34.8 24.3 63 5.4 NW 17 19 9 10 1008.6 1008.5 0.0
17/03:00pm 31.8 34.7 24.4 65 5.2 NW 17 20 9 11 1009.1 1009.0 0.0
17/02:30pm 31.9 35.0 24.2 63 5.4 WNW 15 20 8 11 1009.5 1009.4 0.0
17/02:00pm 31.7 34.7 24.6 66 5.0 WNW 17 20 9 11 1009.9 1009.8 0.0
17/01:30pm 31.9 35.3 24.7 65 5.1 WNW 15 19 8 10 1010.6 1010.5 0.0
17/01:00pm 31.4 34.6 24.3 66 5.0 WNW 15 19 8 10 1011.0 1010.9 0.0
17/12:30pm 31.5 34.3 23.6 63 5.5 WNW 15 17 8 9 1011.4 1011.3 0.0
17/12:00pm 31.6 35.1 24.2 65 5.2 WNW 13 17 7 9 1011.8 1011.7 0.0
17/11:30am 31.4 34.7 24.5 67 4.8 WNW 15 17 8 9 1012.1 1012.0 0.0
17/11:00am 31.5 34.6 24.1 65 5.2 NW 15 17 8 9 1012.5 1012.4 0.0
17/10:30am 31.2 34.6 24.1 66 4.9 NW 13 15 7 8 1012.7 1012.6 0.0
17/10:00am 31.1 34.5 24.0 66 4.9 NW 13 15 7 8 1012.8 1012.7 0.0
17/09:30am 30.1 33.2 23.5 67 4.6 NW 13 19 7 10 1012.7 1012.6 0.0
17/09:00am 30.4 33.3 23.8 68 4.6 NNW 15 19 8 10 1012.4 1012.3 0.0
17/08:30am 29.8 31.7 23.5 69 4.3 NW 19 22 10 12 1012.0 1011.9 0.0
17/08:00am 29.6 31.8 24.0 72 3.9 NNW 19 20 10 11 1011.5 1011.4 0.0
17/07:30am 29.3 31.7 24.2 74 3.5 NNW 19 22 10 12 1010.8 1010.7 0.0
17/07:00am 28.9 31.0 23.8 74 3.5 N 19 24 10 13 1010.3 1010.2 0.0
17/06:30am 28.7 31.0 23.4 73 3.6 N 17 20 9 11 1010.3 1010.2 0.0
17/06:00am 28.8 31.1 23.5 73 3.6 N 17 20 9 11 1009.9 1009.8 0.0
17/05:30am 29.0 31.6 23.9 74 3.5 N 17 22 9 12 1009.6 1009.5 0.0
17/05:00am 29.0 31.8 23.7 73 3.7 NNW 15 19 8 10 1009.8 1009.7 0.0
17/04:30am 28.9 31.7 23.6 73 3.7 N 15 22 8 12 1009.6 1009.5 0.0
17/04:00am 29.1 31.7 24.0 74 3.5 N 17 20 9 11 1009.5 1009.4 0.0
17/03:30am 29.1 31.6 23.8 73 3.7 N 17 20 9 11 1009.5 1009.4 0.0
17/03:00am 29.0 31.6 23.9 74 3.5 N 17 20 9 11 1009.6 1009.5 0.0
17/02:30am 29.1 32.1 24.0 74 3.5 N 15 19 8 10 1009.7 1009.6 0.0
17/02:00am 29.2 32.4 24.3 75 3.4 NNW 15 17 8 9 1009.9 1009.8 0.0
17/01:30am 29.3 32.0 23.5 71 4.0 N 15 19 8 10 1010.0 1009.9 0.0
17/01:00am 29.1 31.7 23.3 71 4.0 N 15 19 8 10 1010.5 1010.4 0.0
17/12:30am 29.4 31.8 22.9 68 4.4 N 15 17 8 9 1010.8 1010.7 0.0
17/12:00am 27.1 31.1 23.8 82 2.3 NNE 9 13 5 7 1011.3 1011.2 0.0
 
Date/Time
CST
Temp
°C
App
Temp
°C
Dew
Point
°C
Rel
Hum
%
Delta-T
°C
Wind Press
QNH
hPa
Press
MSL
hPa
Rain since
9am
mm
Dir  Spd
km/h
Gust
km/h
Spd
kts
Gust
kts
16/11:30pm 27.3 31.5 23.5 80 2.6 NE 7 9 4 5 1011.5 1011.4 0.0
16/11:00pm 27.9 31.7 23.5 77 3.0 NNE 9 15 5 8 1011.7 1011.6 0.0
16/10:30pm 28.0 31.9 23.6 77 3.0 NNE 9 11 5 6 1011.7 1011.6 0.0
16/10:00pm 28.6 32.2 23.7 75 3.4 NNE 11 17 6 9 1011.2 1011.1 0.0
16/09:30pm 28.6 32.1 23.5 74 3.5 NNE 11 13 6 7 1011.1 1011.0 0.0
16/09:00pm 28.7 32.6 23.6 74 3.5 NE 9 15 5 8 1010.7 1010.6 0.0
16/08:30pm 29.1 32.6 23.5 72 3.9 NNE 11 17 6 9 1010.4 1010.3 0.0
16/08:00pm 29.6 32.1 23.8 71 4.0 NNE 17 22 9 12 1010.0 1009.9 0.0
16/07:30pm 29.1 33.4 24.2 75 3.4 NE 9 15 5 8 1009.9 1009.8 0.0
16/07:00pm 29.8 33.8 24.4 73 3.8 NNE 11 17 6 9 1009.4 1009.3 0.0
16/06:30pm 30.5 33.1 24.9 72 3.9 N 20 24 11 13 1009.0 1008.9 0.0
16/06:00pm 30.9 33.7 25.0 71 4.2 N 19 22 10 12 1008.5 1008.4 0.0
16/05:30pm 31.5 34.8 25.1 69 4.5 N 17 20 9 11 1008.2 1008.1 0.0
16/05:00pm 31.5 34.7 25.6 71 4.2 N 19 20 10 11 1008.2 1008.1 0.0
16/04:30pm 31.9 35.3 25.2 67 4.7 N 17 19 9 10 1008.3 1008.2 0.0
16/04:00pm 31.9 36.7 25.7 69 4.4 NNW 11 15 6 8 1008.8 1008.7 0.0
16/03:30pm 32.0 35.8 25.3 67 4.7 NNW 15 17 8 9 1009.2 1009.1 0.0
16/03:00pm 32.0 36.3 26.1 71 4.2 NNW 15 19 8 10 1009.3 1009.2 0.0
16/02:30pm 32.1 35.8 25.7 69 4.6 NNW 17 20 9 11 1009.8 1009.7 0.0
16/02:00pm 32.1 35.9 25.9 70 4.4 NNW 17 20 9 11 1010.4 1010.3 0.0
16/01:30pm 32.1 36.5 26.2 71 4.2 NW 15 19 8 10 1010.7 1010.6 0.0
16/01:00pm 31.9 36.7 26.2 72 4.1 WNW 13 17 7 9 1011.1 1011.0 0.0
16/12:30pm 31.6 35.8 25.9 72 4.1 WNW 15 20 8 11 1011.5 1011.4 0.0
16/12:00pm 31.7 35.9 26.0 72 4.1 WNW 15 19 8 10 1011.9 1011.8 0.0
16/11:30am 31.1 35.2 25.2 71 4.2 WNW 13 17 7 9 1012.2 1012.1 0.0
16/11:00am 31.1 35.6 25.2 71 4.2 WNW 11 15 6 8 1012.5 1012.4 0.0
16/10:30am 30.7 35.3 24.8 71 4.1 WNW 9 13 5 7 1012.7 1012.6 0.0
16/10:00am 30.3 34.9 24.7 72 3.9 WNW 9 15 5 8 1012.8 1012.7 0.0
16/09:30am 30.3 35.4 24.9 73 3.8 W 7 11 4 6 1012.8 1012.7 0.0
16/09:00am 30.0 36.4 24.9 74 3.6 CALM 0 0 0 0 1012.8 1012.7 0.0
16/08:30am 29.7 35.7 24.3 73 3.8 CALM 0 0 0 0 1012.9 1012.8 0.0
16/08:00am 29.6 35.0 24.5 74 3.6 W 4 9 2 5 1012.8 1012.7 0.0
16/07:30am 29.1 33.7 24.7 77 3.1 WNW 9 11 5 6 1012.3 1012.2 0.0
16/07:00am 28.5 33.5 24.5 79 2.8 WNW 6 9 3 5 1011.8 1011.7 0.0
16/06:30am 28.6 32.5 24.8 80 2.7 WNW 13 15 7 8 1011.7 1011.6 0.0
16/06:00am 28.6 31.7 24.2 77 3.1 WNW 15 19 8 10 1011.6 1011.5 0.0
16/05:30am 28.7 31.6 24.5 78 2.9 WNW 17 19 9 10 1011.4 1011.3 0.0
16/05:00am 28.8 31.5 25.0 80 2.7 WNW 20 24 11 13 1011.1 1011.0 0.0
16/04:30am 28.7 31.3 24.9 80 2.7 WNW 20 26 11 14 1010.8 1010.7 0.0
16/04:00am 28.8 31.6 25.2 81 2.5 WNW 20 24 11 13 1010.9 1010.8 0.0
16/03:30am 28.8 31.2 25.2 81 2.5 WNW 22 26 12 14 1010.9 1010.8 0.0
16/03:00am 28.9 31.9 25.5 82 2.4 WNW 20 24 11 13 1011.1 1011.0 0.0
16/02:30am 28.9 32.1 25.5 82 2.4 NW 19 20 10 11 1011.1 1011.0 0.0
16/02:00am 28.8 32.2 25.2 81 2.5 WNW 17 20 9 11 1011.5 1011.4 0.0
16/01:30am 29.0 32.6 25.6 82 2.4 WNW 17 20 9 11 1011.7 1011.6 0.0
16/01:00am 29.0 32.4 25.8 83 2.3 WNW 19 20 10 11 1011.8 1011.7 0.0
16/12:30am 29.0 32.7 25.8 83 2.3 WNW 17 19 9 10 1012.0 1011.9 0.0
16/12:00am 29.1 33.2 25.7 82 2.4 WNW 15 20 8 11 1012.4 1012.3 0.0
 
Date/Time
CST
Temp
°C
App
Temp
°C
Dew
Point
°C
Rel
Hum
%
Delta-T
°C
Wind Press
QNH
hPa
Press
MSL
hPa
Rain since
9am
mm
Dir  Spd
km/h
Gust
km/h
Spd
kts
Gust
kts
15/11:30pm 29.0 32.6 25.6 82 2.4 NW 17 19 9 10 1012.6 1012.5 0.0
15/11:00pm 29.1 33.4 25.5 81 2.5 NW 13 17 7 9 1012.8 1012.7 0.0
15/10:30pm 29.2 33.7 25.8 82 2.4 WNW 13 15 7 8 1012.7 1012.6 0.0
15/10:00pm 29.3 32.5 25.5 80 2.7 WNW 19 20 10 11 1012.4 1012.3 0.0
15/09:30pm 29.3 32.5 25.5 80 2.7 WNW 19 22 10 12 1012.4 1012.3 0.0
15/09:00pm 29.4 33.1 25.8 81 2.6 WNW 17 20 9 11 1012.1 1012.0 0.0
15/08:30pm 29.3 33.2 25.5 80 2.7 W 15 19 8 10 1011.9 1011.8 0.0
15/08:00pm 29.4 32.9 25.4 79 2.8 WNW 17 20 9 11 1011.5 1011.4 0.0
15/07:30pm 29.4 32.6 25.8 81 2.6 WNW 20 24 11 13 1010.7 1010.6 0.0
15/07:00pm 29.7 33.4 25.7 79 2.8 NW 17 20 9 11 1010.3 1010.2 0.0
15/06:30pm 29.8 33.7 25.5 78 3.0 NW 15 20 8 11 1009.8 1009.7 0.0
15/06:00pm 30.3 33.8 26.0 78 3.1 NW 19 22 10 12 1009.2 1009.1 0.0
15/05:30pm 30.9 34.5 26.2 76 3.4 NW 19 22 10 12 1008.9 1008.8 0.0
15/05:00pm 31.1 34.5 26.1 75 3.6 NW 20 24 11 13 1009.1 1009.0 0.0
15/04:30pm 31.7 35.1 26.7 75 3.6 WNW 22 26 12 14 1009.5 1009.4 0.0
15/04:00pm 31.1 34.1 26.1 75 3.6 NW 22 28 12 15 1009.4 1009.3 0.0
15/03:30pm 31.7 35.5 26.7 75 3.6 NW 20 26 11 14 1009.8 1009.7 0.0
15/03:00pm 31.7 35.2 26.3 73 3.9 NW 20 24 11 13 1010.1 1010.0 0.0
15/02:30pm 31.6 34.8 26.4 74 3.7 NW 22 28 12 15 1010.5 1010.4 0.0
15/02:00pm 31.7 35.5 26.5 74 3.7 NW 19 22 10 12 1010.7 1010.6 0.0
15/01:30pm 32.5 37.2 27.3 74 3.8 WNW 17 20 9 11 1011.2 1011.1 0.0
15/01:00pm 31.6 36.5 25.9 72 4.1 WNW 11 15 6 8 1011.7 1011.6 0.0
15/12:30pm 32.0 36.1 26.3 72 4.1 WNW 17 20 9 11 1011.9 1011.8 0.0
15/12:00pm 31.8 36.1 26.6 74 3.7 WNW 17 20 9 11 1012.1 1012.0 0.0
15/11:30am 31.5 36.1 26.5 75 3.6 NW 15 19 8 10 1012.2 1012.1 0.0
15/11:00am 30.9 35.0 25.7 74 3.7 WNW 15 19 8 10 1012.4 1012.3 0.0
15/10:30am 30.7 34.7 26.2 77 3.2 NW 17 20 9 11 1012.7 1012.6 0.0
15/10:00am 30.4 34.3 26.6 80 2.7 NW 19 20 10 11 1012.5 1012.4 0.0
15/09:30am 30.4 34.2 26.8 81 2.6 NNW 20 22 11 12 1012.3 1012.2 0.0
15/09:00am 30.0 33.9 26.6 82 2.4 NW 19 24 10 13 1012.0 1011.9 -
15/08:30am 29.6 33.5 26.6 84 2.1 NW 19 20 10 11 1011.9 1011.8 -
15/08:00am 29.4 33.9 26.4 84 2.1 NW 15 17 8 9 1011.6 1011.5 -
15/04:30am 27.3 32.6 25.9 92 1.0 NW 9 11 5 6 1009.8 1009.7 0.0
15/04:00am 25.0 30.7 23.8 93 0.8 CALM 0 0 0 0 1009.8 1009.7 0.0
15/03:30am 25.1 30.9 23.9 93 0.8 CALM 0 0 0 0 1010.1 1010.0 0.0
15/03:00am 24.9 30.3 23.3 91 1.1 CALM 0 0 0 0 1010.3 1010.2 0.0
15/02:30am 25.3 30.9 23.5 90 1.2 CALM 0 0 0 0 1010.5 1010.4 0.0
15/02:00am 25.7 31.5 23.9 90 1.2 CALM 0 0 0 0 1010.8 1010.7 0.0
15/01:30am 26.0 31.8 24.0 89 1.4 CALM 0 0 0 0 1010.9 1010.8 0.0
15/01:00am 26.8 32.8 24.3 86 1.7 CALM 0 0 0 0 1011.2 1011.1 0.0
15/12:30am 27.3 31.4 24.6 85 1.9 SSW 11 15 6 8 1011.5 1011.4 0.0
15/12:00am 28.4 31.3 25.4 84 2.1 W 20 30 11 16 1011.8 1011.7 0.0
 
Date/Time
CST
Temp
°C
App
Temp
°C
Dew
Point
°C
Rel
Hum
%
Delta-T
°C
Wind Press
QNH
hPa
Press
MSL
hPa
Rain since
9am
mm
Dir  Spd
km/h
Gust
km/h
Spd
kts
Gust
kts
14/11:30pm 29.1 32.5 26.7 87 1.7 WNW 22 28 12 15 1011.5 1011.4 0.0

Other Formats:

Comma delimited format used in spreadsheet applications
http://www.bom.gov.au/fwo/IDD60801/IDD60801.95146.axf

JavaScript Object Notation format (JSON) in row-major order
http://www.bom.gov.au/fwo/IDD60801/IDD60801.95146.json